Time,TemperatureF,DewpointF,PressureIn,WindDirection,WindDirectionDegrees,WindSpeedMPH,WindSpeedGustMPH,Humidity,HourlyPrecipIn,Conditions,Clouds,dailyrainin,SoftwareType,DateUTC
2014-01-01 00:08:00,43.0,-51.2,29.98,ENE,67,2.7,-999.0,1,-99.99,,,0.00,Acu-Link.com,2014-01-01 06:08:00,
2014-01-01 00:24:00,43.0,-51.2,29.98,ENE,67,2.7,-999.0,1,-99.99,,,0.00,Acu-Link.com,2014-01-01 06:24:00,
2014-01-01 00:39:00,43.2,-51.1,29.98,NNW,337,2.2,-999.0,1,-99.99,,,0.00,Acu-Link.com,2014-01-01 06:39:00,
2014-01-01 00:54:00,43.3,-51.1,29.98,SSE,157,0.0,-999.0,1,-99.99,,,0.00,Acu-Link.com,2014-01-01 06:54:00,
2014-01-01 01:09:00,43.7,-50.8,29.98,ENE,67,0.0,-999.0,1,-99.99,,,0.00,Acu-Link.com,2014-01-01 07:09:00,
2014-01-01 01:25:00,43.7,-50.8,29.99,NW,315,0.0,-999.0,1,-99.99,,,0.00,Acu-Link.com,2014-01-01 07:25:00,
2014-01-01 01:40:00,43.7,-50.8,29.98,West,270,0.0,-999.0,1,-99.99,,,0.00,Acu-Link.com,2014-01-01 07:40:00,
2014-01-01 01:55:00,45.0,-50.0,29.99,SSE,157,0.0,-999.0,1,-99.99,,,0.00,Acu-Link.com,2014-01-01 07:55:00,
2014-01-01 02:11:00,44.4,-50.4,29.98,SE,135,2.7,-999.0,1,-99.99,,,0.00,Acu-Link.com,2014-01-01 08:11:00,
2014-01-01 02:26:00,44.1,-50.6,29.97,SE,135,2.2,-999.0,1,-99.99,,,0.00,Acu-Link.com,2014-01-01 08:26:00,
2014-01-01 02:41:00,43.7,-50.8,29.97,SSE,157,1.7,-999.0,1,-99.99,,,0.00,Acu-Link.com,2014-01-01 08:41:00,
2014-01-01 02:56:00,43.9,-50.7,29.97,ESE,112,2.2,-999.0,1,-99.99,,,0.00,Acu-Link.com,2014-01-01 08:56:00,
2014-01-01 03:12:00,44.1,-50.6,29.97,SSE,157,1.1,-999.0,1,-99.99,,,0.00,Acu-Link.com,2014-01-01 09:12:00,
2014-01-01 03:27:00,44.1,-50.6,29.95,ESE,112,2.2,-999.0,1,-99.99,,,0.00,Acu-Link.com,2014-01-01 09:27:00,
2014-01-01 03:42:00,44.2,-50.5,29.95,NNE,22,1.7,-999.0,1,-99.99,,,0.00,Acu-Link.com,2014-01-01 09:42:00,
2014-01-01 03:57:00,44.2,-50.5,29.95,SSE,157,2.2,-999.0,1,-99.99,,,0.00,Acu-Link.com,2014-01-01 09:57:00,
2014-01-01 04:13:00,44.4,-50.4,29.94,SE,135,4.2,-999.0,1,-99.99,,,0.00,Acu-Link.com,2014-01-01 10:13:00,
2014-01-01 04:28:00,44.2,-50.5,29.93,ESE,112,2.7,-999.0,1,-99.99,,,0.00,Acu-Link.com,2014-01-01 10:28:00,
2014-01-01 04:43:00,44.4,-50.4,29.93,SSE,157,2.2,-999.0,1,-99.99,,,0.00,Acu-Link.com,2014-01-01 10:43:00,
2014-01-01 04:59:00,44.4,-50.4,29.93,South,180,1.7,-999.0,1,-99.99,,,0.00,Acu-Link.com,2014-01-01 10:59:00,
2014-01-01 05:14:00,44.6,-50.3,29.94,East,90,1.7,-999.0,1,-99.99,,,0.00,Acu-Link.com,2014-01-01 11:14:00,
2014-01-01 05:29:00,44.6,-50.3,29.93,SE,135,2.7,-999.0,1,-99.99,,,0.00,Acu-Link.com,2014-01-01 11:29:00,
2014-01-01 05:44:00,44.8,-50.1,29.93,East,90,2.7,-999.0,1,-99.99,,,0.00,Acu-Link.com,2014-01-01 11:44:00,
2014-01-01 06:00:00,44.8,-50.1,29.93,ENE,67,1.1,-999.0,1,-99.99,,,0.00,Acu-Link.com,2014-01-01 12:00:00,
2014-01-01 06:15:00,45.0,-50.0,29.94,SSE,157,2.2,-999.0,1,-99.99,,,0.00,Acu-Link.com,2014-01-01 12:15:00,
2014-01-01 06:30:00,45.0,-50.0,29.94,SE,135,1.7,-999.0,1,-99.99,,,0.00,Acu-Link.com,2014-01-01 12:30:00,
2014-01-01 06:45:00,45.0,-50.0,29.94,ESE,112,2.7,-999.0,1,-99.99,,,0.00,Acu-Link.com,2014-01-01 12:45:00,
2014-01-01 07:01:00,45.0,-50.0,29.93,East,90,3.2,-999.0,1,-99.99,,,0.00,Acu-Link.com,2014-01-01 13:01:00,
2014-01-01 07:16:00,45.0,-50.0,29.93,NE,45,2.2,-999.0,1,-99.99,,,0.00,Acu-Link.com,2014-01-01 13:16:00,
2014-01-01 07:31:00,45.1,-50.0,29.93,NE,45,2.7,-999.0,1,-99.99,,,0.00,Acu-Link.com,2014-01-01 13:31:00,
2014-01-01 07:46:00,45.3,-49.8,29.92,East,90,4.2,-999.0,1,-99.99,,,0.00,Acu-Link.com,2014-01-01 13:46:00,
2014-01-01 08:02:00,45.5,-49.7,29.93,ENE,67,3.2,-999.0,1,-99.99,,,0.00,Acu-Link.com,2014-01-01 14:02:00,
2014-01-01 08:17:00,45.7,-49.6,29.94,ENE,67,2.2,-999.0,1,-99.99,,,0.00,Acu-Link.com,2014-01-01 14:17:00,
2014-01-01 08:32:00,46.2,-49.3,29.94,East,90,2.7,-999.0,1,-99.99,,,0.00,Acu-Link.com,2014-01-01 14:32:00,
2014-01-01 08:48:00,46.8,-48.9,29.95,SE,135,2.7,-999.0,1,-99.99,,,0.00,Acu-Link.com,2014-01-01 14:48:00,
2014-01-01 09:03:00,48.2,-48.1,29.94,ESE,112,5.3,-999.0,1,-99.99,,,0.00,Acu-Link.com,2014-01-01 15:03:00,
2014-01-01 09:18:00,48.2,-48.1,29.94,ESE,112,6.3,-999.0,1,-99.99,,,0.00,Acu-Link.com,2014-01-01 15:18:00,
2014-01-01 09:33:00,49.3,-47.4,29.94,ENE,67,2.7,-999.0,1,-99.99,,,0.00,Acu-Link.com,2014-01-01 15:33:00,
2014-01-01 09:49:00,51.4,-46.1,29.94,ESE,112,3.7,-999.0,1,-99.99,,,0.00,Acu-Link.com,2014-01-01 15:49:00,
2014-01-01 10:04:00,52.5,-45.4,29.93,East,90,5.8,-999.0,1,-99.99,,,0.00,Acu-Link.com,2014-01-01 16:04:00,
2014-01-01 10:19:00,52.7,-45.3,29.93,ESE,112,3.2,-999.0,1,-99.99,,,0.00,Acu-Link.com,2014-01-01 16:19:00,
2014-01-01 10:34:00,55.4,-43.7,29.94,ESE,112,2.7,-999.0,1,-99.99,,,0.00,Acu-Link.com,2014-01-01 16:34:00,
2014-01-01 10:50:00,57.9,-42.1,29.92,West,270,1.1,-999.0,1,-99.99,,,0.00,Acu-Link.com,2014-01-01 16:50:00,
2014-01-01 11:05:00,61.2,-40.1,29.92,SSW,202,2.7,-999.0,1,-99.99,,,0.00,Acu-Link.com,2014-01-01 17:05:00,
2014-01-01 11:20:00,62.4,-39.4,29.90,SSE,157,3.2,-999.0,1,-99.99,,,0.00,Acu-Link.com,2014-01-01 17:20:00,
2014-01-01 11:36:00,62.8,-39.2,29.88,SW,225,0.0,-999.0,1,-99.99,,,0.00,Acu-Link.com,2014-01-01 17:36:00,
2014-01-01 11:51:00,64.0,-38.4,29.87,ESE,112,3.7,-999.0,1,-99.99,,,0.00,Acu-Link.com,2014-01-01 17:51:00,
2014-01-01 12:06:00,61.7,-39.8,29.86,SSE,157,5.3,-999.0,1,-99.99,,,0.00,Acu-Link.com,2014-01-01 18:06:00,
2014-01-01 12:22:00,63.7,-38.6,29.85,SW,225,1.7,-999.0,1,-99.99,,,0.00,Acu-Link.com,2014-01-01 18:22:00,
2014-01-01 12:37:00,62.1,-39.6,29.84,SE,135,3.7,-999.0,1,-99.99,,,0.00,Acu-Link.com,2014-01-01 18:37:00,
2014-01-01 12:52:00,60.3,-40.7,29.83,SSE,157,4.7,-999.0,1,-99.99,,,0.00,Acu-Link.com,2014-01-01 18:52:00,
2014-01-01 13:07:00,60.4,-40.6,29.81,SSW,202,2.2,-999.0,1,-99.99,,,0.00,Acu-Link.com,2014-01-01 19:07:00,
2014-01-01 13:23:00,61.0,-40.2,29.81,South,180,3.7,-999.0,1,-99.99,,,0.00,Acu-Link.com,2014-01-01 19:23:00,
2014-01-01 13:38:00,61.0,-40.2,29.80,SSE,157,6.3,-999.0,1,-99.99,,,0.00,Acu-Link.com,2014-01-01 19:38:00,
2014-01-01 13:53:00,61.2,-40.1,29.80,ESE,112,4.7,-999.0,1,-99.99,,,0.00,Acu-Link.com,2014-01-01 19:53:00,
2014-01-01 14:09:00,60.4,-40.6,29.78,WSW,247,4.2,-999.0,1,-99.99,,,0.00,Acu-Link.com,2014-01-01 20:09:00,
2014-01-01 14:24:00,61.0,-40.2,29.79,ESE,112,4.2,-999.0,1,-99.99,,,0.00,Acu-Link.com,2014-01-01 20:24:00,
2014-01-01 14:39:00,60.3,-40.7,29.79,SSE,157,3.7,-999.0,1,-99.99,,,0.00,Acu-Link.com,2014-01-01 20:39:00,
2014-01-01 14:55:00,59.5,-41.2,29.78,SE,135,3.2,-999.0,1,-99.99,,,0.00,Acu-Link.com,2014-01-01 20:55:00,
2014-01-01 15:10:00,59.2,-41.3,29.78,SE,135,3.7,-999.0,1,-99.99,,,0.00,Acu-Link.com,2014-01-01 21:10:00,
2014-01-01 15:25:00,58.8,-41.6,29.77,SE,135,2.7,-999.0,1,-99.99,,,0.00,Acu-Link.com,2014-01-01 21:25:00,
2014-01-01 15:40:00,58.6,-41.7,29.77,ESE,112,2.2,-999.0,1,-99.99,,,0.00,Acu-Link.com,2014-01-01 21:40:00,
2014-01-01 15:56:00,58.5,-41.8,29.78,SSE,157,1.1,-999.0,1,-99.99,,,0.00,Acu-Link.com,2014-01-01 21:56:00,
2014-01-01 16:11:00,58.5,-41.8,29.78,SSW,202,2.2,-999.0,1,-99.99,,,0.00,Acu-Link.com,2014-01-01 22:11:00,
2014-01-01 16:26:00,58.5,-41.8,29.78,ESE,112,1.7,-999.0,1,-99.99,,,0.00,Acu-Link.com,2014-01-01 22:26:00,
2014-01-01 16:42:00,58.1,-42.0,29.78,SSE,157,2.2,-999.0,1,-99.99,,,0.00,Acu-Link.com,2014-01-01 22:42:00,
2014-01-01 16:57:00,57.4,-42.4,29.77,SSE,157,2.7,-999.0,1,-99.99,,,0.00,Acu-Link.com,2014-01-01 22:57:00,
2014-01-01 17:12:00,57.2,-42.6,29.76,SSE,157,2.2,-999.0,1,-99.99,,,0.00,Acu-Link.com,2014-01-01 23:12:00,
2014-01-01 17:28:00,57.0,-42.7,29.76,East,90,2.7,-999.0,1,-99.99,,,0.00,Acu-Link.com,2014-01-01 23:28:00,
2014-01-01 17:43:00,56.8,-42.8,29.76,SSE,157,0.0,-999.0,1,-99.99,,,0.00,Acu-Link.com,2014-01-01 23:43:00,
2014-01-01 17:58:00,56.7,-42.9,29.76,WSW,247,2.2,-999.0,1,-99.99,,,0.00,Acu-Link.com,2014-01-01 23:58:00,
2014-01-01 18:13:00,56.3,-43.1,29.76,South,180,0.0,-999.0,1,-99.99,,,0.00,Acu-Link.com,2014-01-02 00:13:00,
2014-01-01 18:29:00,55.9,-43.3,29.75,SW,225,0.0,-999.0,1,-99.99,,,0.00,Acu-Link.com,2014-01-02 00:29:00,
2014-01-01 18:44:00,55.6,-43.5,29.76,South,180,0.0,-999.0,1,-99.99,,,0.00,Acu-Link.com,2014-01-02 00:44:00,
2014-01-01 18:59:00,55.2,-43.8,29.74,East,90,0.0,-999.0,1,-99.99,,,0.00,Acu-Link.com,2014-01-02 00:59:00,
2014-01-01 19:15:00,55.2,-43.8,29.75,South,180,0.0,-999.0,1,-99.99,,,0.00,Acu-Link.com,2014-01-02 01:15:00,
2014-01-01 19:30:00,55.2,-43.8,29.75,SSE,157,0.0,-999.0,1,-99.99,,,0.00,Acu-Link.com,2014-01-02 01:30:00,
2014-01-01 19:45:00,55.4,-43.7,29.75,SSW,202,0.0,-999.0,1,-99.99,,,0.00,Acu-Link.com,2014-01-02 01:45:00,
2014-01-01 20:01:00,55.2,-43.8,29.75,ENE,67,0.0,-999.0,1,-99.99,,,0.00,Acu-Link.com,2014-01-02 02:01:00,
2014-01-01 20:16:00,55.2,-43.8,29.75,SE,135,0.0,-999.0,1,-99.99,,,0.00,Acu-Link.com,2014-01-02 02:16:00,
2014-01-01 20:31:00,55.2,-43.8,29.75,NNE,22,0.0,-999.0,1,-99.99,,,0.00,Acu-Link.com,2014-01-02 02:31:00,
2014-01-01 20:46:00,55.9,-43.3,29.75,SE,135,0.0,-999.0,1,-99.99,,,0.00,Acu-Link.com,2014-01-02 02:46:00,
2014-01-01 21:02:00,55.8,-43.4,29.75,NE,45,0.0,-999.0,1,-99.99,,,0.00,Acu-Link.com,2014-01-02 03:02:00,
2014-01-01 21:17:00,55.6,-43.5,29.75,SW,225,0.0,-999.0,1,-99.99,,,0.00,Acu-Link.com,2014-01-02 03:17:00,
2014-01-01 21:32:00,55.6,-43.5,29.74,East,90,0.0,-999.0,1,-99.99,,,0.00,Acu-Link.com,2014-01-02 03:32:00,
2014-01-01 21:48:00,55.4,-43.7,29.74,ESE,112,0.0,-999.0,1,-99.99,,,0.00,Acu-Link.com,2014-01-02 03:48:00,
2014-01-01 22:03:00,55.8,-43.4,29.74,ESE,112,1.1,-999.0,1,-99.99,,,0.00,Acu-Link.com,2014-01-02 04:03:00,
2014-01-01 22:18:00,55.9,-43.3,29.73,SE,135,0.0,-999.0,1,-99.99,,,0.00,Acu-Link.com,2014-01-02 04:18:00,
2014-01-01 22:34:00,55.9,-43.3,29.72,ENE,67,0.0,-999.0,1,-99.99,,,0.00,Acu-Link.com,2014-01-02 04:34:00,
2014-01-01 22:49:00,55.9,-43.3,29.73,SSW,202,0.0,-999.0,1,-99.99,,,0.00,Acu-Link.com,2014-01-02 04:49:00,
2014-01-01 23:04:00,55.9,-43.3,29.73,WSW,247,0.0,-999.0,1,-99.99,,,0.00,Acu-Link.com,2014-01-02 05:04:00,
2014-01-01 23:20:00,55.9,-43.3,29.73,WSW,247,0.0,-999.0,1,-99.99,,,0.00,Acu-Link.com,2014-01-02 05:20:00,
2014-01-01 23:35:00,55.9,-43.3,29.73,West,270,1.1,-999.0,1,-99.99,,,0.00,Acu-Link.com,2014-01-02 05:35:00,
2014-01-01 23:50:00,56.7,-42.9,29.72,SSW,202,0.0,-999.0,1,-99.99,,,0.00,Acu-Link.com,2014-01-02 05:50:00,